Aérodrome :
LOGIN :

S'inscrire | Disclaimer

   EN    FR    IT 

 










Légende :    VFR   VFR Marginal   IFR   IFR Intensif   IFR Très Intensif
Visi : 
Plafond : 
>= 8 km
>= 3000ft
5 à 8 km
1000 à 3000 ft
1500m à 5 km
500 à 1000 ft
800 à 1500m
200 à 500 ft
< 800m
< 200 ft
Symboles :   Orages  Brouillard  Fortes neiges  Fortes précipitations  Vent > 20 kt
SIGMETs :   Divers  Orages  Givrage  Turbulence  Onde Orograph.  Cendres Volcan.






- Altitude de l'aérodrome : 46 ft
- Code IATA : SNN


EINN - Shannon

DERNIER METAR :
  • 032130Z 23011KT 4000 -DZ SCT004 BKN007 BKN011 15/14 Q1006 TEMPO 2500 BKN004

METARs EXPIRÉS :
  • 032100Z 23012KT 4000 -DZ SCT004 BKN007 BKN012 15/15 Q1005 TEMPO 2500 BKN004
  • 032030Z 23012KT 5000 -DZ SCT004 BKN007 BKN012 15/15 Q1005 TEMPO 4000
  • 032000Z 22010KT 6000 -DZ BKN007 BKN017 16/15 Q1005 TEMPO 4000
  • 031930Z 22011KT 7000 -DZ BKN008 BKN017 16/15 Q1005 TEMPO 4000
  • 031900Z 22010KT 5000 -DZ FEW005 BKN009 BKN017 16/15 Q1005 TEMPO 4000

TAF TAF EINN
Valide du 03 à 18h jusqu'au 04 à 18h UTC


031700Z 0318/0418 24011KT 7000 BKN018
TEMPO 0318/0418 4000 -RADZ BKN007
PROB40
TEMPO 0319/0409 2500 BKN004
PROB30
TEMPO 0320/0405 0700 FG BKN002
BECMG 0408/0410 21010KT
PROB30
TEMPO 0409/0412 2500 BKN004
BECMG 0411/0413 24012KT
PROB40
TEMPO 0412/0418 2500 BKN004



MET'MAP, la Météo Aéronautique d'un coup d'oeil ! - Copyright ORBIFLY Décembre 2007 - Disclaimer

ORBIFLY MET'MAP TEAM :

Programmation & Développement : Alexandra Zaïnal
Sur une idée originale de : Baudouin d'Aumeries
Assistance à la programmation : Marc-Olivier Méhu
Soutien technique & logistique : Manuel Goepfert

Contact : metmap@orbifly.com




SOURCES & CREDITS :

   NOAA